createdAt,value
2019-04-23T00:00:05.603Z,100540.55
2019-04-23T00:00:29.342Z,100534.75
2019-04-23T00:01:14.689Z,100541.91
2019-04-23T00:01:35.405Z,100540.06
2019-04-23T00:02:20.491Z,100536.97
2019-04-23T00:02:52.420Z,100535.98
2019-04-23T00:03:14.042Z,100542.77
2019-04-23T00:03:38.978Z,100534.27
2019-04-23T00:04:10.412Z,100533.27
2019-04-23T00:04:32.947Z,100533.92
2019-04-23T00:05:02.747Z,100534.91
2019-04-23T00:05:41.439Z,100530.83
2019-04-23T00:06:23.595Z,100526.77
2019-04-23T00:06:58.757Z,100526.27
2019-04-23T00:07:25.888Z,100523.06
2019-04-23T00:07:49.705Z,100523.56
2019-04-23T00:08:09.559Z,100520.84
2019-04-23T00:08:44.879Z,100527.25
2019-04-23T00:09:07.316Z,100515.41
2019-04-23T00:09:36.392Z,100524.42
2019-04-23T00:09:59.302Z,100523.06
2019-04-23T00:10:26.284Z,100518.99
2019-04-23T00:10:42.781Z,100525.78
2019-04-23T00:11:21.796Z,100513.04
2019-04-23T00:11:41.622Z,100518.13
2019-04-23T00:12:12.707Z,100518.47
2019-04-23T00:13:16.916Z,100523.56
2019-04-23T00:13:29.345Z,100518.13
2019-04-23T00:14:22.515Z,100511.34
2019-04-23T00:14:55.214Z,100519.48
2019-04-23T00:15:10.558Z,100510.85
2019-04-23T00:15:43.909Z,100516.28
2019-04-23T00:16:44.395Z,100509.49
2019-04-23T00:17:15.289Z,100514.92
2019-04-23T00:18:10.124Z,100506.41
2019-04-23T00:18:37.272Z,100509.13
2019-04-23T00:18:49.782Z,100510.85
2019-04-23T00:19:24.694Z,100514.55
2019-04-23T00:19:53.408Z,100514.55
2019-04-23T00:20:14.753Z,100510.97
2019-04-23T00:20:43.063Z,100506.03
2019-04-23T00:21:20.236Z,100505.55
2019-04-23T00:21:52.078Z,100508.75
2019-04-23T00:22:26.869Z,100509.13
2019-04-23T00:22:53.353Z,100503.32
2019-04-23T00:23:20.775Z,100506.03
2019-04-23T00:23:49.828Z,100510.75
2019-04-23T00:24:23.861Z,100505.33
2019-04-23T00:26:18.021Z,100504.58
2019-04-23T00:27:08.755Z,100497.92
2019-04-23T00:27:29.502Z,100501.16
2019-04-23T00:27:51.873Z,100498.94
2019-04-23T00:28:22.555Z,100501.27
2019-04-23T00:28:50.575Z,100490.05
2019-04-23T00:29:13.161Z,100502.26
2019-04-23T00:29:46.242Z,100501.39
2019-04-23T00:30:00.931Z,100501.89
2019-04-23T00:30:36.256Z,100501.77
2019-04-23T00:30:56.664Z,100495.48
2019-04-23T00:31:24.719Z,100490.05
2019-04-23T00:31:53.293Z,100497.70
2019-04-23T00:32:42.305Z,100497.33
2019-04-23T00:33:12.108Z,100501.39
2019-04-23T00:33:34.215Z,100491.90
2019-04-23T00:34:01.217Z,100497.33
2019-04-23T00:34:38.058Z,100493.26
2019-04-23T00:35:23.566Z,100494.61
2019-04-23T00:36:03.073Z,100499.55
2019-04-23T00:36:23.029Z,100496.83
2019-04-23T00:37:11.702Z,100494.98
2019-04-23T00:38:05.262Z,100495.84
2019-04-23T00:38:50.183Z,100489.19
2019-04-23T00:39:31.587Z,100499.92
2019-04-23T00:39:51.481Z,100495.36
2019-04-23T00:40:14.813Z,100493.14
2019-04-23T00:40:40.650Z,100496.34
2019-04-23T00:41:05.679Z,100495.48
2019-04-23T00:41:36.542Z,100492.64
2019-04-23T00:41:57.529Z,100490.91
2019-04-23T00:42:43.380Z,100489.19
2019-04-23T00:43:09.142Z,100490.55
2019-04-23T00:43:43.372Z,100491.90
2019-04-23T00:44:32.520Z,100493.63
2019-04-23T00:44:41.509Z,100492.27
2019-04-23T00:45:01.766Z,100494.61
2019-04-23T00:45:34.939Z,100483.64
2019-04-23T00:46:23.391Z,100482.77
2019-04-23T00:46:46.587Z,100485.48
2019-04-23T00:47:22.379Z,100480.06
2019-04-23T00:48:15.146Z,100481.42
2019-04-23T00:48:36.422Z,100482.77
2019-04-23T00:49:08.271Z,100485.98
2019-04-23T00:49:37.235Z,100481.05
2019-04-23T00:50:02.026Z,100478.33
2019-04-23T00:50:49.175Z,100479.69
2019-04-23T00:51:09.245Z,100474.63
2019-04-23T00:51:46.045Z,100476.48
2019-04-23T00:52:07.507Z,100479.69
2019-04-23T00:52:33.574Z,100478.33
2019-04-23T00:52:57.603Z,100477.84
2019-04-23T00:53:29.981Z,100472.91
2019-04-23T00:53:51.575Z,100475.62
2019-04-23T00:54:17.866Z,100480.06
2019-04-23T00:54:49.381Z,100475.62
2019-04-23T00:55:18.548Z,100478.33
2019-04-23T00:56:11.622Z,100481.91
2019-04-23T00:56:42.103Z,100473.77
2019-04-23T00:57:01.382Z,100486.47
2019-04-23T00:57:24.240Z,100480.70
2019-04-23T00:57:51.954Z,100476.64
2019-04-23T00:58:25.039Z,100485.98
2019-04-23T00:58:43.239Z,100477.47
2019-04-23T00:59:08.373Z,100482.06
2019-04-23T00:59:39.456Z,100479.69
2019-04-23T01:00:14.036Z,100477.99
2019-04-23T01:00:34.061Z,100479.34
2019-04-23T01:01:31.782Z,100485.11
2019-04-23T01:01:56.095Z,100475.28
2019-04-23T01:02:18.117Z,100474.91
2019-04-23T01:02:49.316Z,100477.47
2019-04-23T01:03:25.675Z,100481.20
2019-04-23T01:04:02.846Z,100483.05
2019-04-23T01:04:28.157Z,100477.62
2019-04-23T01:05:01.282Z,100480.70
2019-04-23T01:05:50.405Z,100479.84
2019-04-23T01:06:17.063Z,100478.98
2019-04-23T01:06:38.985Z,100478.48
2019-04-23T01:07:09.845Z,100470.47
2019-04-23T01:07:31.877Z,100479.47
2019-04-23T01:07:58.609Z,100470.84
2019-04-23T01:08:36.803Z,100477.25
2019-04-23T01:08:50.957Z,100474.41
2019-04-23T01:09:15.579Z,100470.84
2019-04-23T01:09:45.852Z,100474.05
2019-04-23T01:10:57.192Z,100475.89
2019-04-23T01:11:21.112Z,100470.47
2019-04-23T01:11:55.591Z,100476.88
2019-04-23T01:12:14.061Z,100467.91
2019-04-23T01:12:46.681Z,100469.38
2019-04-23T01:13:09.265Z,100474.31
2019-04-23T01:13:37.841Z,100471.11
2019-04-23T01:14:04.340Z,100468.03
2019-04-23T01:14:26.251Z,100468.40
2019-04-23T01:14:55.624Z,100468.40
2019-04-23T01:15:26.038Z,100468.03
2019-04-23T01:15:49.514Z,100468.03
2019-04-23T01:16:09.994Z,100465.69
2019-04-23T01:16:37.495Z,100467.04
2019-04-23T01:17:08.575Z,100469.88
2019-04-23T01:17:39.882Z,100470.25
2019-04-23T01:18:15.869Z,100468.03
2019-04-23T01:18:45.895Z,100468.03
2019-04-23T01:18:54.562Z,100458.16
2019-04-23T01:19:45.075Z,100468.03
2019-04-23T01:20:08.131Z,100468.03
2019-04-23T01:20:37.096Z,100468.03
2019-04-23T01:20:53.585Z,100468.52
2019-04-23T01:21:28.462Z,100466.30
2019-04-23T01:21:55.744Z,100463.09
2019-04-23T01:22:29.292Z,100461.02
2019-04-23T01:22:56.981Z,100464.20
2019-04-23T01:23:42.380Z,100460.13
2019-04-23T01:24:12.024Z,100459.75
2019-04-23T01:24:50.796Z,100464.81
2019-04-23T01:25:27.036Z,100458.52
2019-04-23T01:25:56.554Z,100462.25
2019-04-23T01:26:30.855Z,100469.52
2019-04-23T01:27:55.932Z,100463.73
2019-04-23T01:28:25.333Z,100464.71
2019-04-23T01:28:48.241Z,100464.34
2019-04-23T01:29:14.520Z,100461.63
2019-04-23T01:29:48.695Z,100457.93
2019-04-23T01:30:34.390Z,100462.98
2019-04-23T01:31:02.187Z,100467.05
2019-04-23T01:31:31.964Z,100461.29
2019-04-23T01:31:53.323Z,100461.63
2019-04-23T01:32:22.280Z,100467.05
2019-04-23T01:32:44.063Z,100467.91
2019-04-23T01:33:09.955Z,100454.84
2019-04-23T01:33:47.065Z,100460.27
2019-04-23T01:34:07.960Z,100460.64
2019-04-23T01:34:34.778Z,100463.36
2019-04-23T01:35:07.309Z,100456.20
2019-04-23T01:35:36.435Z,100455.70
2019-04-23T01:36:07.903Z,100457.93
2019-04-23T01:36:21.920Z,100451.15
2019-04-23T01:36:36.041Z,100458.42
2019-04-23T01:37:13.098Z,100455.22
2019-04-23T01:37:37.660Z,100449.30
2019-04-23T01:37:55.704Z,100449.67
2019-04-23T01:38:34.819Z,100456.95
2019-04-23T01:38:58.016Z,100453.38
2019-04-23T01:39:17.785Z,100453.38
2019-04-23T01:39:49.974Z,100452.38
2019-04-23T01:41:09.520Z,100447.45
2019-04-23T01:41:33.585Z,100452.38
2019-04-23T01:42:07.094Z,100450.87
2019-04-23T01:42:37.371Z,100450.53
2019-04-23T01:42:49.251Z,100445.11
2019-04-23T01:43:19.690Z,100442.02
2019-04-23T01:43:46.085Z,100449.17
2019-04-23T01:44:14.351Z,100445.11
2019-04-23T01:44:42.087Z,100447.82
2019-04-23T01:45:09.844Z,100451.89
2019-04-23T01:45:47.905Z,100442.73
2019-04-23T01:46:01.293Z,100445.45
2019-04-23T01:46:32.335Z,100448.16
2019-04-23T01:46:56.136Z,100444.47
2019-04-23T01:47:24.934Z,100446.31
2019-04-23T01:48:04.672Z,100443.11
2019-04-23T01:48:40.772Z,100444.09
2019-04-23T01:49:07.082Z,100446.80
2019-04-23T01:49:37.265Z,100447.67
2019-04-23T01:50:08.245Z,100450.87
2019-04-23T01:50:27.918Z,100443.26
2019-04-23T01:50:54.921Z,100450.87
2019-04-23T01:51:19.681Z,100447.82
2019-04-23T01:51:49.755Z,100442.39
2019-04-23T01:52:14.516Z,100445.11
2019-04-23T01:52:45.583Z,100443.75
2019-04-23T01:53:06.922Z,100444.73
2019-04-23T01:53:34.623Z,100448.16
2019-04-23T01:53:57.429Z,100445.60
2019-04-23T01:54:25.933Z,100446.95
2019-04-23T01:54:52.802Z,100442.39
2019-04-23T01:55:24.445Z,100447.82
2019-04-23T01:55:42.462Z,100446.09
2019-04-23T01:56:04.908Z,100445.11
2019-04-23T01:56:34.119Z,100445.11
2019-04-23T01:57:03.689Z,100436.23
2019-04-23T01:57:30.774Z,100441.53
2019-04-23T01:58:06.491Z,100448.80
2019-04-23T01:58:45.502Z,100443.38
2019-04-23T01:59:20.091Z,100446.09
2019-04-23T01:59:38.935Z,100443.38
2019-04-23T02:00:08.801Z,100433.52
2019-04-23T02:00:37.073Z,100443.01
2019-04-23T02:01:00.882Z,100443.38
2019-04-23T02:01:46.259Z,100443.38
2019-04-23T02:02:29.676Z,100440.79
2019-04-23T02:02:51.057Z,100436.72
2019-04-23T02:03:15.219Z,100436.72
2019-04-23T02:03:43.475Z,100434.50
2019-04-23T02:04:10.139Z,100440.45
2019-04-23T02:04:36.272Z,100437.21
2019-04-23T02:05:05.992Z,100438.08
2019-04-23T02:06:06.716Z,100436.23
2019-04-23T02:06:20.502Z,100439.80
2019-04-23T02:06:45.053Z,100430.80
2019-04-23T02:07:15.907Z,100430.80
2019-04-23T02:07:44.393Z,100434.50
2019-04-23T02:08:03.229Z,100432.16
2019-04-23T02:08:26.064Z,100430.43
2019-04-23T02:08:59.945Z,100432.65
2019-04-23T02:09:25.070Z,100436.23
2019-04-23T02:09:55.573Z,100432.80
2019-04-23T02:10:23.056Z,100438.94
2019-04-23T02:11:10.484Z,100435.36
2019-04-23T02:11:34.267Z,100426.36
2019-04-23T02:12:07.500Z,100431.78
2019-04-23T02:12:33.404Z,100431.45
2019-04-23T02:12:55.753Z,100431.45
2019-04-23T02:13:28.598Z,100430.09
2019-04-23T02:13:49.137Z,100430.09
2019-04-23T02:14:14.853Z,100433.30
2019-04-23T02:14:41.754Z,100439.59
2019-04-23T02:15:03.649Z,100431.45
2019-04-23T02:15:38.102Z,100433.79
2019-04-23T02:15:57.261Z,100430.58
2019-04-23T02:16:30.676Z,100431.56
2019-04-23T02:16:50.289Z,100430.21
2019-04-23T02:17:24.825Z,100423.92
2019-04-23T02:17:53.674Z,100429.34
2019-04-23T02:18:14.983Z,100424.91
2019-04-23T02:18:36.035Z,100422.56
2019-04-23T02:19:11.341Z,100424.41
2019-04-23T02:19:30.449Z,100433.42
2019-04-23T02:20:01.036Z,100423.21
2019-04-23T02:20:55.926Z,100425.77
2019-04-23T02:21:26.062Z,100423.55
2019-04-23T02:22:19.346Z,100421.36
2019-04-23T02:22:58.574Z,100426.27
2019-04-23T02:23:49.001Z,100420.50
2019-04-23T02:24:12.152Z,100421.48
2019-04-23T02:24:47.575Z,100421.48
2019-04-23T02:25:17.073Z,100418.41
2019-04-23T02:26:03.230Z,100422.12
2019-04-23T02:26:34.205Z,100419.05
2019-04-23T02:26:55.749Z,100414.98
2019-04-23T02:27:29.492Z,100414.98
2019-04-23T02:28:03.169Z,100422.47
2019-04-23T02:28:19.553Z,100415.96
2019-04-23T02:28:54.874Z,100409.67
2019-04-23T02:29:23.541Z,100420.03
2019-04-23T02:30:20.707Z,100415.96
2019-04-23T02:30:50.662Z,100413.25
2019-04-23T02:31:44.519Z,100422.25
2019-04-23T02:32:29.630Z,100414.98
2019-04-23T02:33:01.559Z,100414.98
2019-04-23T02:33:31.964Z,100419.75
2019-04-23T02:33:44.798Z,100414.98
2019-04-23T02:34:25.781Z,100410.91
2019-04-23T02:35:10.031Z,100418.41
2019-04-23T02:35:42.751Z,100414.33
2019-04-23T02:37:17.861Z,100418.41
2019-04-23T02:37:53.741Z,100417.05
2019-04-23T02:38:44.295Z,100415.69
2019-04-23T02:39:33.428Z,100406.34
2019-04-23T02:40:01.353Z,100408.20
2019-04-23T02:40:56.707Z,100408.20
2019-04-23T02:41:12.939Z,100410.91
2019-04-23T02:41:35.137Z,100411.77
2019-04-23T02:42:28.600Z,100414.48
2019-04-23T02:43:16.709Z,100419.05
2019-04-23T02:43:44.244Z,100410.05
2019-04-23T02:44:38.995Z,100406.84
2019-04-23T02:45:09.607Z,100406.69
2019-04-23T02:45:50.344Z,100411.77
2019-04-23T02:46:05.615Z,100403.63
2019-04-23T02:46:24.612Z,100414.83
2019-04-23T02:47:12.767Z,100403.48
2019-04-23T02:47:23.143Z,100400.43
2019-04-23T02:47:55.458Z,100403.63
2019-04-23T02:48:44.344Z,100409.92
2019-04-23T02:49:18.038Z,100405.48
2019-04-23T02:49:44.226Z,100407.70
2019-04-23T02:50:24.858Z,100400.06
2019-04-23T02:51:48.245Z,100403.75
2019-04-23T02:51:51.242Z,100397.84
2019-04-23T02:52:43.100Z,100396.97
2019-04-23T02:54:00.762Z,100391.55
2019-04-23T02:54:12.754Z,100402.40
2019-04-23T02:54:36.128Z,100396.60
2019-04-23T02:55:00.940Z,100402.03
2019-04-23T02:56:26.404Z,100397.96
2019-04-23T02:56:51.400Z,100402.52
2019-04-23T02:57:36.920Z,100404.74
2019-04-23T02:58:02.085Z,100388.12
2019-04-23T02:58:52.172Z,100397.63
2019-04-23T02:59:29.093Z,100395.89
2019-04-23T03:00:19.224Z,100394.54
2019-04-23T03:01:34.262Z,100383.32
2019-04-23T03:02:12.530Z,100392.31
2019-04-23T03:02:37.249Z,100392.31
2019-04-23T03:03:31.718Z,100395.03
2019-04-23T03:03:49.726Z,100383.32
2019-04-23T03:05:04.346Z,100389.61
2019-04-23T03:05:24.511Z,100387.88
2019-04-23T03:05:57.416Z,100381.59
2019-04-23T03:06:27.064Z,100380.61
2019-04-23T03:06:55.533Z,100390.09
2019-04-23T03:07:22.443Z,100383.81
2019-04-23T03:08:13.773Z,100390.59
2019-04-23T03:08:49.222Z,100391.95
2019-04-23T03:09:56.544Z,100391.08
2019-04-23T03:10:20.907Z,100385.66
2019-04-23T03:10:51.530Z,100388.38
2019-04-23T03:11:15.519Z,100390.59
2019-04-23T03:11:45.691Z,100381.59
2019-04-23T03:12:26.617Z,100386.52
2019-04-23T03:12:40.745Z,100393.80
2019-04-23T03:13:19.813Z,100381.25
2019-04-23T03:13:39.247Z,100381.25
2019-04-23T03:13:54.170Z,100385.16
2019-04-23T03:14:19.981Z,100385.66
2019-04-23T03:14:55.766Z,100379.37
2019-04-23T03:15:39.720Z,100382.95
2019-04-23T03:16:03.769Z,100378.39
2019-04-23T03:16:38.132Z,100387.02
2019-04-23T03:16:53.184Z,100380.23
2019-04-23T03:17:31.023Z,100382.95
2019-04-23T03:17:52.989Z,100387.02
2019-04-23T03:18:35.216Z,100375.30
2019-04-23T03:19:14.839Z,100374.47
2019-04-23T03:19:51.785Z,100372.25
2019-04-23T03:20:37.922Z,100379.53
2019-04-23T03:21:19.150Z,100382.23
2019-04-23T03:21:47.373Z,100375.58
2019-04-23T03:22:46.055Z,100374.00
2019-04-23T03:23:27.569Z,100377.20
2019-04-23T03:23:55.545Z,100374.00
2019-04-23T03:25:05.224Z,100373.27
2019-04-23T03:26:14.084Z,100376.13
2019-04-23T03:26:47.361Z,100373.05
2019-04-23T03:27:17.428Z,100372.18
2019-04-23T03:27:56.118Z,100372.33
2019-04-23T03:28:36.095Z,100369.74
2019-04-23T03:28:55.723Z,100371.47
2019-04-23T03:29:37.819Z,100374.67
2019-04-23T03:30:22.441Z,100371.81
2019-04-23T03:32:01.295Z,100370.98
2019-04-23T03:32:48.321Z,100371.31
2019-04-23T03:33:12.569Z,100374.18
2019-04-23T03:34:42.361Z,100369.09
2019-04-23T03:35:55.140Z,100370.45
2019-04-23T03:36:39.689Z,100369.47
2019-04-23T03:38:36.292Z,100363.06
2019-04-23T03:38:48.866Z,100363.06
2019-04-23T03:38:56.474Z,100361.70
2019-04-23T03:40:10.860Z,100363.44
2019-04-23T03:40:31.482Z,100363.92
2019-04-23T03:41:10.710Z,100369.84
2019-04-23T03:41:39.238Z,100361.70
2019-04-23T03:41:53.842Z,100358.02
2019-04-23T03:42:38.736Z,100367.99
2019-04-23T03:42:47.719Z,100369.84
2019-04-23T03:43:37.540Z,100357.14
2019-04-23T03:43:55.062Z,100367.50
2019-04-23T03:44:29.877Z,100361.70
2019-04-23T03:45:10.100Z,100361.70
2019-04-23T03:46:00.927Z,100366.14
2019-04-23T03:46:49.949Z,100366.64
2019-04-23T03:47:11.296Z,100357.64
2019-04-23T03:47:32.194Z,100358.99
2019-04-23T03:48:32.389Z,100369.84
2019-04-23T03:49:13.414Z,100359.48
2019-04-23T03:49:49.906Z,100362.69
2019-04-23T03:50:15.529Z,100365.40
2019-04-23T03:50:43.580Z,100360.47
2019-04-23T03:51:06.863Z,100367.13
2019-04-23T03:52:09.719Z,100354.55
2019-04-23T03:52:31.017Z,100355.42
2019-04-23T03:53:03.015Z,100355.42
2019-04-23T03:53:25.985Z,100361.70
2019-04-23T03:53:58.534Z,100353.57
2019-04-23T03:54:41.055Z,100356.28
2019-04-23T03:55:06.088Z,100358.13
2019-04-23T03:55:37.383Z,100350.86
2019-04-23T03:57:22.355Z,100358.99
2019-04-23T03:58:12.148Z,100358.99
2019-04-23T03:58:39.485Z,100357.64
2019-04-23T03:58:58.214Z,100347.77
2019-04-23T03:59:58.996Z,100352.70
2019-04-23T04:00:37.484Z,100356.28
2019-04-23T04:02:04.364Z,100354.55
2019-04-23T04:02:20.847Z,100351.84
2019-04-23T04:04:36.626Z,100350.48
2019-04-23T04:05:10.834Z,100355.91
2019-04-23T04:06:05.313Z,100357.27
2019-04-23T04:06:39.527Z,100352.33
2019-04-23T04:07:08.433Z,100354.55
2019-04-23T04:07:28.427Z,100352.70
2019-04-23T04:08:02.474Z,100355.54
2019-04-23T04:10:02.502Z,100346.42
2019-04-23T04:11:11.483Z,100347.41
2019-04-23T04:11:45.061Z,100351.84
2019-04-23T04:12:46.327Z,100348.42
2019-04-23T04:13:15.139Z,100351.47
2019-04-23T04:13:42.380Z,100347.93
2019-04-23T04:15:41.496Z,100350.77
2019-04-23T04:15:55.481Z,100349.78
2019-04-23T04:16:21.042Z,100354.70
2019-04-23T04:16:59.817Z,100349.78
2019-04-23T04:18:01.735Z,100348.42
2019-04-23T04:19:09.019Z,100355.69
2019-04-23T04:20:09.753Z,100357.55
2019-04-23T04:21:01.145Z,100348.55
2019-04-23T04:21:39.022Z,100350.77
2019-04-23T04:23:07.440Z,100346.33
2019-04-23T04:23:29.982Z,100340.91
2019-04-23T04:23:57.662Z,100342.25
2019-04-23T04:24:21.773Z,100348.55
2019-04-23T04:24:48.649Z,100350.39
2019-04-23T04:25:10.078Z,100344.97
2019-04-23T04:25:35.468Z,100347.68
2019-04-23T04:25:56.629Z,100345.83
2019-04-23T04:27:03.717Z,100344.11
2019-04-23T04:27:27.008Z,100341.88
2019-04-23T04:27:53.895Z,100347.30
2019-04-23T04:29:21.456Z,100343.61
2019-04-23T04:29:40.784Z,100344.59
2019-04-23T04:30:28.026Z,100341.39
2019-04-23T04:31:13.796Z,100348.66
2019-04-23T04:32:22.132Z,100345.95
2019-04-23T04:32:42.914Z,100350.17
2019-04-23T04:33:05.474Z,100340.19
2019-04-23T04:33:50.989Z,100342.04
2019-04-23T04:35:40.938Z,100348.33
2019-04-23T04:36:14.058Z,100339.33
2019-04-23T04:37:27.662Z,100341.55
2019-04-23T04:37:42.256Z,100340.69
2019-04-23T04:39:08.045Z,100339.33
2019-04-23T04:39:42.849Z,100335.27
2019-04-23T04:40:10.764Z,100340.31
2019-04-23T04:41:40.329Z,100342.04
2019-04-23T04:41:56.990Z,100343.89
2019-04-23T04:42:16.988Z,100341.17
2019-04-23T04:42:42.310Z,100350.66
2019-04-23T04:43:45.334Z,100349.80
2019-04-23T04:45:13.646Z,100336.73
2019-04-23T04:46:15.305Z,100344.38
2019-04-23T04:46:27.978Z,100347.21
2019-04-23T04:47:32.372Z,100344.01
2019-04-23T04:47:53.664Z,100343.14
2019-04-23T04:48:28.632Z,100351.80
2019-04-23T04:48:56.530Z,100347.21
2019-04-23T04:49:27.381Z,100352.78
2019-04-23T04:49:51.704Z,100353.16
2019-04-23T04:50:04.867Z,100349.09
2019-04-23T04:50:57.464Z,100355.34
2019-04-23T04:51:35.344Z,100355.87
2019-04-23T04:51:49.400Z,100355.34
2019-04-23T04:52:13.443Z,100353.16
2019-04-23T04:53:33.521Z,100349.59
2019-04-23T04:54:26.400Z,100359.08
2019-04-23T04:55:05.247Z,100352.63
2019-04-23T04:56:10.157Z,100352.30
2019-04-23T04:56:30.282Z,100358.58
2019-04-23T04:56:58.176Z,100357.22
2019-04-23T04:57:36.808Z,100350.45
2019-04-23T04:58:14.592Z,100355.87
2019-04-23T04:58:43.411Z,100341.94
2019-04-23T04:59:05.660Z,100356.85
2019-04-23T04:59:39.700Z,100351.92
2019-04-23T05:00:08.320Z,100353.66
2019-04-23T05:01:18.505Z,100357.84
2019-04-23T05:01:36.922Z,100355.63
2019-04-23T05:02:15.582Z,100348.84
2019-04-23T05:03:23.882Z,100358.33
2019-04-23T05:03:54.856Z,100350.20
2019-04-23T05:04:37.971Z,100356.48
2019-04-23T05:05:37.963Z,100354.76
2019-04-23T05:06:18.265Z,100336.15
2019-04-23T05:07:40.475Z,100349.34
2019-04-23T05:07:56.313Z,100350.20
2019-04-23T05:08:19.525Z,100350.69
2019-04-23T05:08:48.050Z,100350.84
2019-04-23T05:09:36.306Z,100350.84
2019-04-23T05:09:48.405Z,100350.84
2019-04-23T05:10:30.204Z,100345.05
2019-04-23T05:11:05.622Z,100344.19
2019-04-23T05:11:26.287Z,100354.53
2019-04-23T05:12:01.651Z,100345.91
2019-04-23T05:12:21.778Z,100341.10
2019-04-23T05:12:36.121Z,100350.09
2019-04-23T05:13:32.202Z,100342.45
2019-04-23T05:14:08.314Z,100346.52
2019-04-23T05:14:33.403Z,100351.08
2019-04-23T05:15:17.216Z,100348.03
2019-04-23T05:15:58.583Z,100345.33
2019-04-23T05:16:16.032Z,100351.23
2019-04-23T05:16:43.965Z,100350.00
2019-04-23T05:18:34.568Z,100349.63
2019-04-23T05:19:08.500Z,100343.38
2019-04-23T05:19:42.606Z,100344.85
2019-04-23T05:20:37.318Z,100346.85
2019-04-23T05:21:36.882Z,100349.68
2019-04-23T05:22:00.535Z,100350.66
2019-04-23T05:22:22.496Z,100348.44
2019-04-23T05:23:00.165Z,100352.17
2019-04-23T05:23:25.591Z,100350.81
2019-04-23T05:24:22.080Z,100348.23
2019-04-23T05:24:52.543Z,100353.77
2019-04-23T05:25:26.116Z,100348.00
2019-04-23T05:25:49.940Z,100351.20
2019-04-23T05:26:20.925Z,100346.28
2019-04-23T05:26:29.328Z,100346.28
2019-04-23T05:27:30.974Z,100348.61
2019-04-23T05:27:47.196Z,100347.26
2019-04-23T05:28:30.283Z,100338.75
2019-04-23T05:29:14.580Z,100346.02
2019-04-23T05:29:53.195Z,100349.59
2019-04-23T05:30:44.511Z,100347.04
2019-04-23T05:31:12.269Z,100347.53
2019-04-23T05:31:27.873Z,100344.33
2019-04-23T05:32:02.518Z,100346.17
2019-04-23T05:32:27.308Z,100341.25
2019-04-23T05:32:56.082Z,100345.43
2019-04-23T05:33:47.655Z,100344.08
2019-04-23T05:34:11.189Z,100350.85
2019-04-23T05:34:45.147Z,100348.59
2019-04-23T05:35:13.584Z,100346.41
2019-04-23T05:36:04.850Z,100352.66
2019-04-23T05:36:13.081Z,100353.19
2019-04-23T05:37:00.291Z,100354.17
2019-04-23T05:37:29.415Z,100355.52
2019-04-23T05:38:02.450Z,100354.17
2019-04-23T05:39:35.179Z,100352.44
2019-04-23T05:40:02.639Z,100357.37
2019-04-23T05:40:37.101Z,100356.51
2019-04-23T05:41:45.318Z,100350.11
2019-04-23T05:42:10.946Z,100360.57
2019-04-23T05:42:44.519Z,100353.30
2019-04-23T05:43:08.217Z,100360.08
2019-04-23T05:43:35.771Z,100348.26
2019-04-23T05:44:05.192Z,100347.89
2019-04-23T05:44:29.641Z,100353.80
2019-04-23T05:44:59.147Z,100349.36
2019-04-23T05:45:15.867Z,100346.31
2019-04-23T05:45:41.341Z,100353.08
2019-04-23T05:46:14.273Z,100349.63
2019-04-23T05:47:11.811Z,100351.96
2019-04-23T05:47:42.797Z,100351.13
2019-04-23T05:48:02.403Z,100349.52
2019-04-23T05:48:52.337Z,100361.49
2019-04-23T05:49:12.849Z,100358.78
2019-04-23T05:49:43.090Z,100349.42
2019-04-23T05:50:10.009Z,100354.47
2019-04-23T05:50:44.852Z,100329.17
2019-04-23T05:51:04.272Z,100329.17
2019-04-23T05:52:07.475Z,100356.73
2019-04-23T05:52:27.547Z,100349.58
2019-04-23T05:53:11.403Z,100351.05
2019-04-23T05:53:40.877Z,100341.34
2019-04-23T05:54:08.760Z,100341.34
2019-04-23T05:54:37.131Z,100351.47
2019-04-23T05:55:20.089Z,100352.08
2019-04-23T05:55:55.450Z,100343.58
2019-04-23T05:56:20.670Z,100344.59
2019-04-23T05:57:00.262Z,100350.61
2019-04-23T05:57:14.211Z,100344.83
2019-04-23T05:57:38.514Z,100349.90
2019-04-23T05:58:08.871Z,100343.24
2019-04-23T05:58:40.082Z,100353.21
2019-04-23T05:59:08.762Z,100347.42
2019-04-23T05:59:42.179Z,100347.58
2019-04-23T05:59:56.900Z,100344.98
2019-04-23T06:00:28.731Z,100358.15
2019-04-23T06:00:59.815Z,100352.73
2019-04-23T06:01:42.380Z,100348.33
2019-04-23T06:02:11.095Z,100351.64
2019-04-23T06:02:48.591Z,100353.00
2019-04-23T06:03:14.858Z,100355.70
2019-04-23T06:03:44.371Z,100343.14
2019-04-23T06:04:21.440Z,100351.91
2019-04-23T06:04:32.547Z,100353.26
2019-04-23T06:04:51.139Z,100347.47
2019-04-23T06:05:54.067Z,100352.17
2019-04-23T06:06:20.219Z,100348.11
2019-04-23T06:07:15.021Z,100353.14
2019-04-23T06:08:43.975Z,100349.34
2019-04-23T06:08:53.347Z,100346.64
2019-04-23T06:09:18.873Z,100341.23
2019-04-23T06:09:50.422Z,100346.27
2019-04-23T06:10:11.356Z,100342.58
2019-04-23T06:10:40.678Z,100348.97
2019-04-23T06:11:08.576Z,100347.62
2019-04-23T06:11:36.822Z,100346.38
2019-04-23T06:11:59.750Z,100345.52
2019-04-23T06:12:19.052Z,100344.69
2019-04-23T06:12:43.555Z,100335.70
2019-04-23T06:13:20.984Z,100346.04
2019-04-23T06:13:46.234Z,100347.88
2019-04-23T06:14:42.614Z,100342.95
2019-04-23T06:14:57.543Z,100344.42
2019-04-23T06:15:28.997Z,100342.09
2019-04-23T06:15:51.357Z,100344.42
2019-04-23T06:16:22.346Z,100343.07
2019-04-23T06:16:55.805Z,100345.41
2019-04-23T06:17:15.240Z,100344.58
2019-04-23T06:17:38.155Z,100341.11
2019-04-23T06:18:08.027Z,100348.00
2019-04-23T06:18:38.813Z,100346.64
2019-04-23T06:19:01.388Z,100343.59
2019-04-23T06:19:34.757Z,100339.53
2019-04-23T06:19:57.049Z,100348.14
2019-04-23T06:20:19.733Z,100341.38
2019-04-23T06:20:54.314Z,100340.89
2019-04-23T06:21:14.158Z,100336.34
2019-04-23T06:21:47.905Z,100338.67
2019-04-23T06:22:27.318Z,100347.66
2019-04-23T06:22:56.025Z,100342.09
2019-04-23T06:23:33.109Z,100337.17
2019-04-23T06:23:58.555Z,100338.52
2019-04-23T06:24:24.983Z,100337.55
2019-04-23T06:24:41.141Z,100334.84
2019-04-23T06:25:21.544Z,100333.48
2019-04-23T06:25:50.766Z,100339.27
2019-04-23T06:26:22.400Z,100332.13
2019-04-23T06:26:47.158Z,100334.84
2019-04-23T06:27:05.110Z,100340.25
2019-04-23T06:28:22.355Z,100333.86
2019-04-23T06:28:40.380Z,100324.98
2019-04-23T06:29:15.719Z,100332.63
2019-04-23T06:30:24.210Z,100324.98
2019-04-23T06:30:34.343Z,100327.70
2019-04-23T06:30:56.086Z,100330.41
2019-04-23T06:31:22.637Z,100324.64
2019-04-23T06:31:50.890Z,100331.41
2019-04-23T06:32:14.943Z,100326.48
2019-04-23T06:32:40.888Z,100327.36
2019-04-23T06:33:08.921Z,100326.48
2019-04-23T06:33:32.619Z,100324.27
2019-04-23T06:34:04.149Z,100326.11
2019-04-23T06:35:16.651Z,100310.52